Time;durP1;ratioP1;P1;durP2;ratioP2;P2;SDS_P1;SDS_P2;PMS_P1;PMS_P2;Temp;Humidity;BMP_temperature;BMP_pressure;BME280_temperature;BME280_humidity;BME280_pressure;Samples;Min_cycle;Max_cycle;Signal;HPM_P1;HPM_P2
2021/08/10 00:00:54;;;;;;;62.53;46.83;;;;;;;;;;5112666;28;20480;-56
2021/08/10 00:03:23;;;;;;;194.27;147.10;;;;;;;;;;5113008;28;20459;-55
2021/08/10 00:06:01;;;;;;;73.60;53.03;;;;;;;;;;5112849;28;20452;-55
2021/08/10 00:08:28;;;;;;;78.30;45.77;;;;;;;;;;5113016;28;20459;-54
2021/08/10 00:10:55;;;;;;;87.40;52.70;;;;;;;;;;5112552;28;20919;-55
2021/08/10 00:13:23;;;;;;;593.27;470.73;;;;;;;;;;5112594;28;20556;-56
2021/08/10 00:15:51;;;;;;;129.07;83.00;;;;;;;;;;5111427;28;20459;-54
2021/08/10 00:18:18;;;;;;;176.43;108.93;;;;;;;;;;5112113;28;20433;-55
2021/08/10 00:21:00;;;;;;;151.60;101.67;;;;;;;;;;5111557;28;20471;-49
2021/08/10 00:23:27;;;;;;;292.33;190.03;;;;;;;;;;5112266;28;20554;-57
2021/08/10 00:25:55;;;;;;;516.40;379.67;;;;;;;;;;5112481;28;20485;-51
2021/08/10 00:28:22;;;;;;;355.20;216.10;;;;;;;;;;5111847;28;20459;-53
2021/08/10 00:30:50;;;;;;;305.33;178.27;;;;;;;;;;5111360;28;20604;-53
2021/08/10 00:33:24;;;;;;;475.27;313.73;;;;;;;;;;5111895;28;20435;-51
2021/08/10 00:35:51;;;;;;;446.40;289.17;;;;;;;;;;5112595;28;20524;-51
2021/08/10 00:38:20;;;;;;;315.50;179.33;;;;;;;;;;5117405;28;20471;-55
2021/08/10 00:40:49;;;;;;;228.70;135.30;;;;;;;;;;5127902;28;20468;-52
2021/08/10 00:43:33;;;;;;;314.53;189.90;;;;;;;;;;5132823;28;20489;-55
2021/08/10 00:46:01;;;;;;;442.07;297.07;;;;;;;;;;5131859;28;20485;-50
2021/08/10 00:48:28;;;;;;;349.13;229.67;;;;;;;;;;5132002;28;20448;-53
2021/08/10 00:50:55;;;;;;;398.00;293.10;;;;;;;;;;5136594;28;20484;-53
2021/08/10 00:53:24;;;;;;;357.33;243.13;;;;;;;;;;5135602;28;20633;-51
2021/08/10 00:55:54;;;;;;;496.53;379.30;;;;;;;;;;5136231;28;20511;-56
2021/08/10 00:58:22;;;;;;;214.90;147.23;;;;;;;;;;5135866;28;20481;-54
2021/08/10 01:00:49;;;;;;;457.70;354.37;;;;;;;;;;5134990;28;20460;-49
2021/08/10 01:03:16;;;;;;;339.13;245.80;;;;;;;;;;5135585;28;20500;-50
2021/08/10 01:05:46;;;;;;;290.10;201.00;;;;;;;;;;5135046;28;20621;-51
2021/08/10 01:08:16;;;;;;;205.57;149.00;;;;;;;;;;5134964;28;20461;-50
2021/08/10 01:10:49;;;;;;;115.20;80.47;;;;;;;;;;5135782;28;20455;-51
2021/08/10 01:13:19;;;;;;;128.93;83.90;;;;;;;;;;5135653;28;20554;-51
2021/08/10 01:15:48;;;;;;;343.10;237.53;;;;;;;;;;5135030;28;20462;-53
2021/08/10 01:18:21;;;;;;;98.20;64.37;;;;;;;;;;5134305;28;20436;-56
2021/08/10 01:21:16;;;;;;;62.77;42.47;;;;;;;;;;5135745;28;20496;-52
2021/08/10 01:23:43;;;;;;;78.43;47.23;;;;;;;;;;5076682;28;20451;-52
2021/08/10 01:26:17;;;;;;;107.20;78.80;;;;;;;;;;5106254;28;20471;-55
2021/08/10 01:28:51;;;;;;;115.23;79.10;;;;;;;;;;5115831;28;20451;-52
2021/08/10 01:31:25;;;;;;;135.60;99.03;;;;;;;;;;5115484;28;20451;-55
2021/08/10 01:34:00;;;;;;;212.43;146.07;;;;;;;;;;5115152;28;20443;-56
2021/08/10 01:36:28;;;;;;;113.50;86.57;;;;;;;;;;5114401;28;20431;-54
2021/08/10 01:38:58;;;;;;;99.93;75.17;;;;;;;;;;5113660;28;20545;-53
2021/08/10 01:41:33;;;;;;;46.00;33.33;;;;;;;;;;5114011;28;20485;-52
2021/08/10 01:44:02;;;;;;;100.43;72.37;;;;;;;;;;5113378;28;20522;-56
2021/08/10 01:46:31;;;;;;;59.87;40.53;;;;;;;;;;5115621;28;20443;-54
2021/08/10 01:48:59;;;;;;;66.57;43.93;;;;;;;;;;5115328;28;20455;-54
2021/08/10 01:51:28;;;;;;;55.47;35.93;;;;;;;;;;5116428;28;20454;-55
2021/08/10 01:53:58;;;;;;;54.07;38.27;;;;;;;;;;5114606;28;20445;-56
2021/08/10 01:56:26;;;;;;;65.30;41.53;;;;;;;;;;5114469;28;20470;-53
2021/08/10 01:58:55;;;;;;;20.53;11.10;;;;;;;;;;5113634;28;20520;-52
2021/08/10 02:01:23;;;;;;;17.30;12.07;;;;;;;;;;5111916;28;20481;-53
2021/08/10 02:03:52;;;;;;;15.10;11.40;;;;;;;;;;5114142;28;20472;-50
2021/08/10 02:06:22;;;;;;;24.73;18.27;;;;;;;;;;5113720;28;20432;-55
2021/08/10 02:08:49;;;;;;;85.67;49.40;;;;;;;;;;5114073;28;20467;-53
2021/08/10 02:11:17;;;;;;;35.87;21.33;;;;;;;;;;5113810;28;20501;-49
2021/08/10 02:13:44;;;;;;;16.63;7.20;;;;;;;;;;5113339;28;20514;-48
2021/08/10 02:16:12;;;;;;;10.83;5.53;;;;;;;;;;5113412;28;20463;-50
2021/08/10 02:18:41;;;;;;;8.20;4.73;;;;;;;;;;5113594;28;20513;-53
2021/08/10 02:21:14;;;;;;;8.33;4.03;;;;;;;;;;5112822;28;20510;-52
2021/08/10 02:23:41;;;;;;;6.00;3.17;;;;;;;;;;5113216;28;20540;-51
2021/08/10 02:26:09;;;;;;;7.30;3.77;;;;;;;;;;5114144;28;20463;-51
2021/08/10 02:29:01;;;;;;;7.17;4.10;;;;;;;;;;5114069;28;20466;-54
2021/08/10 02:31:29;;;;;;;5.30;3.27;;;;;;;;;;5114483;28;20455;-52
2021/08/10 02:33:56;;;;;;;7.60;3.10;;;;;;;;;;5113699;28;20455;-52
2021/08/10 02:36:26;;;;;;;7.20;3.30;;;;;;;;;;5113162;28;20436;-54
2021/08/10 02:38:54;;;;;;;11.37;3.67;;;;;;;;;;5113153;28;20667;-53
2021/08/10 02:41:22;;;;;;;6.93;4.30;;;;;;;;;;5113128;28;20435;-50
2021/08/10 02:43:49;;;;;;;7.37;3.57;;;;;;;;;;5112468;28;20829;-53
2021/08/10 02:46:16;;;;;;;8.23;3.63;;;;;;;;;;5113100;28;20467;-50
2021/08/10 02:48:53;;;;;;;9.07;4.30;;;;;;;;;;5113419;28;20466;-51
2021/08/10 02:51:21;;;;;;;4.07;2.23;;;;;;;;;;5093967;28;20498;-52
2021/08/10 02:53:50;;;;;;;5.30;2.63;;;;;;;;;;5093254;28;20445;-51
2021/08/10 02:56:34;;;;;;;5.27;3.00;;;;;;;;;;5093718;28;20461;-54
2021/08/10 02:59:04;;;;;;;5.33;3.03;;;;;;;;;;5094059;28;20487;-54
2021/08/10 03:01:33;;;;;;;7.87;3.07;;;;;;;;;;5093409;28;20506;-55
2021/08/10 03:04:13;;;;;;;3.73;2.33;;;;;;;;;;5101267;28;20482;-53
2021/08/10 03:06:45;;;;;;;5.73;3.00;;;;;;;;;;5114897;28;20463;-52
2021/08/10 03:09:15;;;;;;;6.67;2.73;;;;;;;;;;5114253;28;20457;-55
2021/08/10 03:11:56;;;;;;;4.73;2.00;;;;;;;;;;5103647;28;20436;-52
2021/08/10 03:14:26;;;;;;;9.57;3.60;;;;;;;;;;5107702;28;20458;-52
2021/08/10 03:16:53;;;;;;;4.60;2.57;;;;;;;;;;5104424;28;20464;-58
2021/08/10 03:19:21;;;;;;;9.87;4.00;;;;;;;;;;5113360;28;20481;-56
2021/08/10 03:21:49;;;;;;;6.00;3.33;;;;;;;;;;5114435;28;20511;-56
2021/08/10 03:24:20;;;;;;;6.43;2.77;;;;;;;;;;5113427;28;20528;-53
2021/08/10 03:26:58;;;;;;;9.00;4.27;;;;;;;;;;5113923;28;20439;-51
2021/08/10 03:29:31;;;;;;;5.50;2.77;;;;;;;;;;5096961;28;20447;-53
2021/08/10 03:31:59;;;;;;;5.07;3.17;;;;;;;;;;5093638;28;20454;-56
2021/08/10 03:34:26;;;;;;;8.17;3.60;;;;;;;;;;5093659;28;20804;-55
2021/08/10 03:37:09;;;;;;;7.17;3.80;;;;;;;;;;5093366;28;20490;-50
2021/08/10 03:39:39;;;;;;;7.30;3.53;;;;;;;;;;5102826;28;20447;-54
2021/08/10 03:42:07;;;;;;;10.93;4.30;;;;;;;;;;5133776;28;20496;-55
2021/08/10 03:45:00;;;;;;;7.17;4.53;;;;;;;;;;5134166;28;20464;-57
2021/08/10 03:47:27;;;;;;;6.07;3.87;;;;;;;;;;5133167;28;20480;-53
2021/08/10 03:49:57;;;;;;;10.37;4.50;;;;;;;;;;5133454;28;20455;-51
2021/08/10 03:52:33;;;;;;;7.70;3.80;;;;;;;;;;5133273;28;20523;-52
2021/08/10 03:55:02;;;;;;;7.53;3.90;;;;;;;;;;5115783;28;20525;-57
2021/08/10 03:57:31;;;;;;;7.83;3.37;;;;;;;;;;5110472;28;20474;-50
2021/08/10 04:00:06;;;;;;;7.47;3.97;;;;;;;;;;5107579;28;20463;-52
2021/08/10 04:02:34;;;;;;;6.80;3.37;;;;;;;;;;5112275;28;20497;-51
2021/08/10 04:05:01;;;;;;;7.13;4.00;;;;;;;;;;5113970;28;20509;-52
2021/08/10 04:07:30;;;;;;;10.20;4.30;;;;;;;;;;5111970;28;20456;-52
2021/08/10 04:09:59;;;;;;;10.17;4.10;;;;;;;;;;5102029;28;20472;-53
2021/08/10 04:12:28;;;;;;;7.03;4.43;;;;;;;;;;5092364;28;20487;-51
2021/08/10 04:14:58;;;;;;;7.63;3.63;;;;;;;;;;5106379;28;20467;-54
2021/08/10 04:17:26;;;;;;;4.80;2.60;;;;;;;;;;5111851;28;20483;-55
2021/08/10 04:19:56;;;;;;;4.33;3.13;;;;;;;;;;5113153;28;20809;-55
2021/08/10 04:22:25;;;;;;;5.23;3.10;;;;;;;;;;5113901;28;20553;-55
2021/08/10 04:24:52;;;;;;;12.07;5.37;;;;;;;;;;5115594;28;20451;-51
2021/08/10 04:27:20;;;;;;;4.70;2.60;;;;;;;;;;5116357;28;20458;-53
2021/08/10 04:29:59;;;;;;;6.77;2.93;;;;;;;;;;5116482;28;20660;-54
2021/08/10 04:32:27;;;;;;;9.03;3.80;;;;;;;;;;5107030;28;20728;-51
2021/08/10 04:34:55;;;;;;;5.00;2.77;;;;;;;;;;5108353;28;20469;-54
2021/08/10 04:37:27;;;;;;;9.20;4.20;;;;;;;;;;5117191;28;20474;-54
2021/08/10 04:39:54;;;;;;;6.43;3.73;;;;;;;;;;5101820;28;20498;-56
2021/08/10 04:42:22;;;;;;;8.80;4.10;;;;;;;;;;5096168;28;20490;-56
2021/08/10 04:44:56;;;;;;;9.43;3.50;;;;;;;;;;5096224;28;20448;-55
2021/08/10 04:47:29;;;;;;;12.63;4.23;;;;;;;;;;5101395;28;20449;-53
2021/08/10 04:49:58;;;;;;;8.57;4.37;;;;;;;;;;5117113;28;20499;-50
2021/08/10 04:52:35;;;;;;;8.10;4.87;;;;;;;;;;5116473;28;20474;-55
2021/08/10 04:55:03;;;;;;;6.23;3.03;;;;;;;;;;5115731;28;20546;-56
2021/08/10 04:57:31;;;;;;;9.27;3.40;;;;;;;;;;5116647;28;20565;-51
2021/08/10 05:00:05;;;;;;;9.60;4.30;;;;;;;;;;5116773;28;20470;-57
2021/08/10 05:02:34;;;;;;;6.00;4.23;;;;;;;;;;5115230;28;20486;-51
2021/08/10 05:05:01;;;;;;;9.50;5.00;;;;;;;;;;5116594;28;20462;-53
2021/08/10 05:07:34;;;;;;;7.40;4.00;;;;;;;;;;5115593;28;20450;-54
2021/08/10 05:10:06;;;;;;;10.97;5.20;;;;;;;;;;5116334;28;20454;-52
2021/08/10 05:12:49;;;;;;;9.60;4.63;;;;;;;;;;5116262;28;20467;-56
2021/08/10 05:15:21;;;;;;;7.33;4.70;;;;;;;;;;5101133;28;20452;-54
2021/08/10 05:17:51;;;;;;;10.07;5.77;;;;;;;;;;5096790;28;20514;-56
2021/08/10 05:20:21;;;;;;;5.37;4.00;;;;;;;;;;5106000;28;20459;-51
2021/08/10 05:22:54;;;;;;;8.53;5.63;;;;;;;;;;5100308;28;20538;-54
2021/08/10 05:25:23;;;;;;;8.00;4.50;;;;;;;;;;5095830;28;20510;-53
2021/08/10 05:27:59;;;;;;;11.03;4.40;;;;;;;;;;5105323;28;20657;-54
2021/08/10 05:30:27;;;;;;;12.17;4.30;;;;;;;;;;5095417;28;20679;-54
2021/08/10 05:32:56;;;;;;;7.47;4.90;;;;;;;;;;5095626;28;20421;-50
2021/08/10 05:35:30;;;;;;;8.80;4.67;;;;;;;;;;5100130;28;20449;-50
2021/08/10 05:37:59;;;;;;;7.00;4.00;;;;;;;;;;5114900;28;20469;-56
2021/08/10 05:40:26;;;;;;;6.13;4.00;;;;;;;;;;5115344;28;20480;-56
2021/08/10 05:43:10;;;;;;;9.63;3.87;;;;;;;;;;5115171;28;20478;-53
2021/08/10 05:45:37;;;;;;;8.07;4.60;;;;;;;;;;5115302;28;20458;-54
2021/08/10 05:48:07;;;;;;;7.77;4.53;;;;;;;;;;5115499;28;20453;-52
2021/08/10 05:50:35;;;;;;;6.37;3.50;;;;;;;;;;5115011;28;20460;-55
2021/08/10 05:53:02;;;;;;;8.70;4.77;;;;;;;;;;5115060;28;20458;-56
2021/08/10 05:55:31;;;;;;;9.17;4.93;;;;;;;;;;5115422;28;20495;-55
2021/08/10 05:57:58;;;;;;;10.00;5.10;;;;;;;;;;5112230;28;20490;-59
2021/08/10 06:00:25;;;;;;;19.90;9.97;;;;;;;;;;5111909;28;20440;-55
2021/08/10 06:03:18;;;;;;;7.83;3.97;;;;;;;;;;5130250;28;20473;-56
2021/08/10 06:05:47;;;;;;;9.97;4.80;;;;;;;;;;5117552;28;20454;-56
2021/08/10 06:08:15;;;;;;;10.33;5.40;;;;;;;;;;5121567;28;20527;-55
2021/08/10 06:10:49;;;;;;;8.27;4.90;;;;;;;;;;5115308;28;20516;-57
2021/08/10 06:13:20;;;;;;;9.40;6.00;;;;;;;;;;5115029;28;20478;-53
2021/08/10 06:15:51;;;;;;;8.90;4.90;;;;;;;;;;5098633;28;20486;-57
2021/08/10 06:18:18;;;;;;;9.53;4.40;;;;;;;;;;5103005;28;20486;-56
2021/08/10 06:20:47;;;;;;;8.37;4.77;;;;;;;;;;5113688;28;20470;-55
2021/08/10 06:23:42;;;;;;;9.67;5.50;;;;;;;;;;5110575;28;20486;-53
2021/08/10 06:26:15;;;;;;;13.53;5.57;;;;;;;;;;5103654;28;20493;-56
2021/08/10 06:28:43;;;;;;;6.73;3.60;;;;;;;;;;5115021;28;20496;-58
2021/08/10 06:31:19;;;;;;;7.87;4.37;;;;;;;;;;5115102;28;20451;-57
2021/08/10 06:33:48;;;;;;;7.33;4.50;;;;;;;;;;5115192;28;20458;-55
2021/08/10 06:36:22;;;;;;;5.70;3.43;;;;;;;;;;5115958;28;20482;-54
2021/08/10 06:38:53;;;;;;;7.33;3.70;;;;;;;;;;5116139;28;20557;-55
2021/08/10 06:41:36;;;;;;;9.40;4.00;;;;;;;;;;5100944;28;20507;-57
2021/08/10 06:44:18;;;;;;;8.90;3.10;;;;;;;;;;5100621;28;20475;-56
2021/08/10 06:46:47;;;;;;;6.30;3.70;;;;;;;;;;5120696;28;20455;-57
2021/08/10 06:49:15;;;;;;;9.40;3.70;;;;;;;;;;5113138;28;20439;-54
2021/08/10 06:51:54;;;;;;;6.13;3.47;;;;;;;;;;5095054;28;20723;-53
2021/08/10 06:54:24;;;;;;;9.47;3.90;;;;;;;;;;5110446;28;20487;-54
2021/08/10 06:56:51;;;;;;;8.57;3.33;;;;;;;;;;5114970;28;20519;-56
2021/08/10 06:59:22;;;;;;;5.70;3.80;;;;;;;;;;5114710;28;20459;-53
2021/08/10 07:01:50;;;;;;;10.10;3.83;;;;;;;;;;5112073;28;20509;-53
2021/08/10 07:04:17;;;;;;;7.13;3.90;;;;;;;;;;5113090;28;20659;-60
2021/08/10 07:07:03;;;;;;;8.57;3.90;;;;;;;;;;5113995;28;20507;-54
2021/08/10 07:09:32;;;;;;;7.83;4.27;;;;;;;;;;5113990;28;20451;-58
2021/08/10 07:12:00;;;;;;;9.47;3.30;;;;;;;;;;5114615;28;20491;-58
2021/08/10 07:14:44;;;;;;;6.27;3.50;;;;;;;;;;5114074;28;20483;-56
2021/08/10 07:17:20;;;;;;;6.77;3.90;;;;;;;;;;5114482;28;20471;-57
2021/08/10 07:19:47;;;;;;;8.00;3.23;;;;;;;;;;5114478;28;20439;-57
2021/08/10 07:25:20;;;;;;;6.07;3.20;;;;;;;;;;5111946;28;20535;-54
2021/08/10 07:27:48;;;;;;;7.30;3.97;;;;;;;;;;5113300;28;20467;-55
2021/08/10 07:30:15;;;;;;;6.83;3.90;;;;;;;;;;5113316;28;20459;-55
2021/08/10 07:32:42;;;;;;;7.67;4.10;;;;;;;;;;5113526;28;20451;-57
2021/08/10 07:35:10;;;;;;;8.37;4.80;;;;;;;;;;5109466;28;20467;-56
2021/08/10 07:37:41;;;;;;;8.17;3.83;;;;;;;;;;5114191;28;20436;-56
2021/08/10 07:40:09;;;;;;;6.33;3.30;;;;;;;;;;5112958;28;20447;-57
2021/08/10 07:42:38;;;;;;;7.17;3.40;;;;;;;;;;5113935;28;20467;-57
2021/08/10 07:45:08;;;;;;;7.37;4.53;;;;;;;;;;5114883;28;20478;-57
2021/08/10 07:47:37;;;;;;;5.63;3.00;;;;;;;;;;5110493;28;20534;-53
2021/08/10 07:50:05;;;;;;;17.93;11.70;;;;;;;;;;5115001;28;20479;-53
2021/08/10 07:52:52;;;;;;;7.10;3.47;;;;;;;;;;5093491;28;20456;-55
2021/08/10 07:55:21;;;;;;;6.57;3.90;;;;;;;;;;5094009;28;20496;-53
2021/08/10 07:57:52;;;;;;;6.30;3.00;;;;;;;;;;5094384;28;20456;-53
2021/08/10 08:00:22;;;;;;;9.63;4.03;;;;;;;;;;5093072;28;20464;-55
2021/08/10 08:02:49;;;;;;;6.53;3.23;;;;;;;;;;5105323;28;20497;-55
2021/08/10 08:05:17;;;;;;;6.70;3.10;;;;;;;;;;5113592;28;20517;-51
2021/08/10 08:07:44;;;;;;;4.63;2.90;;;;;;;;;;5113946;28;20446;-63
2021/08/10 08:10:17;;;;;;;7.67;2.83;;;;;;;;;;5114165;28;20461;-54
2021/08/10 08:12:58;;;;;;;10.10;2.90;;;;;;;;;;5115467;28;20439;-57
2021/08/10 08:15:27;;;;;;;6.07;3.57;;;;;;;;;;5114394;28;20447;-57
2021/08/10 08:17:55;;;;;;;9.90;4.03;;;;;;;;;;5113613;27;20541;-54
2021/08/10 08:20:24;;;;;;;8.97;2.70;;;;;;;;;;5113477;28;20503;-53
2021/08/10 08:22:51;;;;;;;5.33;2.80;;;;;;;;;;5111789;28;20494;-57
2021/08/10 08:25:25;;;;;;;6.90;3.30;;;;;;;;;;5114244;28;20516;-60
2021/08/10 08:31:01;;;;;;;10.50;3.40;;;;;;;;;;5114114;28;20417;-57
2021/08/10 08:33:30;;;;;;;7.53;3.00;;;;;;;;;;5113330;28;20446;-59
2021/08/10 08:36:24;;;;;;;7.10;3.53;;;;;;;;;;5112695;28;20455;-54
2021/08/10 08:38:52;;;;;;;6.70;3.27;;;;;;;;;;5111476;28;20483;-60
2021/08/10 08:41:20;;;;;;;13.33;3.67;;;;;;;;;;5112431;27;20485;-60
2021/08/10 08:43:48;;;;;;;4.83;2.80;;;;;;;;;;5112598;28;20487;-54
2021/08/10 08:46:25;;;;;;;6.80;3.33;;;;;;;;;;5113343;28;20444;-56
2021/08/10 08:49:00;;;;;;;6.37;3.53;;;;;;;;;;5115046;28;20428;-56
2021/08/10 08:51:30;;;;;;;6.77;3.77;;;;;;;;;;5113464;28;20461;-57
2021/08/10 08:54:08;;;;;;;6.23;3.33;;;;;;;;;;5114387;28;20465;-59
2021/08/10 08:59:33;;;;;;;10.40;3.47;;;;;;;;;;5111286;28;20466;-53
2021/08/10 09:02:01;;;;;;;8.17;4.40;;;;;;;;;;5112448;28;20455;-56
2021/08/10 09:04:47;;;;;;;6.17;3.30;;;;;;;;;;5114377;28;20490;-60
2021/08/10 09:07:18;;;;;;;5.97;3.37;;;;;;;;;;5111604;28;20497;-56
2021/08/10 09:10:05;;;;;;;8.63;5.20;;;;;;;;;;5114415;28;20477;-58
2021/08/10 09:12:53;;;;;;;7.40;3.93;;;;;;;;;;5117689;28;20466;-57
2021/08/10 09:15:32;;;;;;;7.00;4.13;;;;;;;;;;5117984;28;20512;-56
2021/08/10 09:18:15;;;;;;;5.27;3.73;;;;;;;;;;5115820;28;20539;-56
2021/08/10 09:21:03;;;;;;;8.70;3.30;;;;;;;;;;5116056;28;20451;-57
2021/08/10 09:26:53;;;;;;;16.73;5.47;;;;;;;;;;5094037;28;20923;-56
2021/08/10 09:29:21;;;;;;;6.67;3.90;;;;;;;;;;5093333;28;20460;-51
2021/08/10 09:37:19;;;;;;;12.60;5.77;;;;;;;;;;5100586;28;20486;-53
2021/08/10 09:39:47;;;;;;;13.93;7.10;;;;;;;;;;5096045;28;20240;-56
2021/08/10 09:42:16;;;;;;;11.20;8.00;;;;;;;;;;5098319;28;20436;-52
2021/08/10 09:45:01;;;;;;;17.77;10.40;;;;;;;;;;5093266;28;20491;-53
2021/08/10 09:47:41;;;;;;;19.13;8.83;;;;;;;;;;5092229;28;20563;-54
2021/08/10 09:50:16;;;;;;;22.00;11.90;;;;;;;;;;5091758;28;20466;-55
2021/08/10 09:52:46;;;;;;;14.43;11.80;;;;;;;;;;5092217;28;20509;-56
2021/08/10 09:55:30;;;;;;;18.57;10.70;;;;;;;;;;5091448;28;20476;-53
2021/08/10 09:58:01;;;;;;;10.20;7.77;;;;;;;;;;5091241;28;20598;-51
2021/08/10 10:00:39;;;;;;;9.50;7.00;;;;;;;;;;5093390;28;20466;-55
2021/08/10 10:03:25;;;;;;;13.20;5.57;;;;;;;;;;5100043;28;20443;-55
2021/08/10 10:05:53;;;;;;;7.80;5.37;;;;;;;;;;5099106;28;20479;-56
2021/08/10 10:08:23;;;;;;;6.60;4.90;;;;;;;;;;5113841;28;20459;-51
2021/08/10 10:10:52;;;;;;;7.33;5.33;;;;;;;;;;5113887;28;20455;-55
2021/08/10 10:13:34;;;;;;;9.60;5.13;;;;;;;;;;5113600;28;20469;-57
2021/08/10 10:16:08;;;;;;;9.10;5.33;;;;;;;;;;5112429;28;20885;-55
2021/08/10 10:18:36;;;;;;;9.57;5.63;;;;;;;;;;5112469;28;20468;-53
2021/08/10 10:21:04;;;;;;;9.10;6.03;;;;;;;;;;5091085;28;20463;-53
2021/08/10 10:26:38;;;;;;;11.93;5.53;;;;;;;;;;5097255;28;20461;-53
2021/08/10 10:29:06;;;;;;;7.57;4.67;;;;;;;;;;5112426;28;20455;-54
2021/08/10 10:31:34;;;;;;;9.07;6.13;;;;;;;;;;5113035;28;20447;-54
2021/08/10 10:34:06;;;;;;;12.67;7.47;;;;;;;;;;5098086;28;20466;-55
2021/08/10 10:36:35;;;;;;;8.00;5.30;;;;;;;;;;5113568;28;20486;-56
2021/08/10 10:39:07;;;;;;;9.80;4.90;;;;;;;;;;5112669;28;20502;-55
2021/08/10 10:41:47;;;;;;;11.23;4.80;;;;;;;;;;5115570;28;20439;-55
2021/08/10 10:47:31;;;;;;;9.80;5.70;;;;;;;;;;5094503;28;20436;-56
2021/08/10 10:50:12;;;;;;;9.27;5.30;;;;;;;;;;5093830;28;20520;-54
2021/08/10 10:52:42;;;;;;;5.73;4.00;;;;;;;;;;5093842;28;20506;-58
2021/08/10 10:55:12;;;;;;;6.93;3.80;;;;;;;;;;5132751;28;20441;-55
2021/08/10 10:57:41;;;;;;;13.53;6.13;;;;;;;;;;5135125;28;20493;-51
2021/08/10 11:03:25;;;;;;;4.70;3.53;;;;;;;;;;5118441;28;20442;-57
2021/08/10 11:06:18;;;;;;;6.30;3.57;;;;;;;;;;5113939;28;20514;-54
2021/08/10 11:08:55;;;;;;;6.40;3.23;;;;;;;;;;5114027;28;20487;-57
2021/08/10 11:11:38;;;;;;;7.80;5.17;;;;;;;;;;5114374;28;20442;-51
2021/08/10 11:14:08;;;;;;;13.70;6.63;;;;;;;;;;5114156;28;20462;-54
2021/08/10 11:19:43;;;;;;;6.60;3.37;;;;;;;;;;5108183;28;20442;-55
2021/08/10 11:22:27;;;;;;;7.37;3.87;;;;;;;;;;5115120;28;20638;-54
2021/08/10 11:25:22;;;;;;;6.40;4.00;;;;;;;;;;5112913;28;20569;-53
2021/08/10 11:27:52;;;;;;;5.00;3.07;;;;;;;;;;5110554;28;20557;-55
2021/08/10 11:30:51;;;;;;;5.80;3.43;;;;;;;;;;5133184;28;20477;-52
2021/08/10 11:33:52;;;;;;;6.40;3.80;;;;;;;;;;5130275;28;20458;-56
2021/08/10 11:36:30;;;;;;;5.27;3.80;;;;;;;;;;5043531;28;20426;-55
2021/08/10 11:39:15;;;;;;;5.30;3.37;;;;;;;;;;5032316;28;20455;-57
2021/08/10 11:41:43;;;;;;;4.73;3.40;;;;;;;;;;5099556;28;20451;-54
2021/08/10 11:44:22;;;;;;;5.20;3.83;;;;;;;;;;5104511;28;20468;-58
2021/08/10 11:46:51;;;;;;;4.17;3.10;;;;;;;;;;5113635;28;20542;-52
2021/08/10 11:49:27;;;;;;;5.77;3.50;;;;;;;;;;5114806;28;20477;-56
2021/08/10 11:55:06;;;;;;;10.10;3.67;;;;;;;;;;5110991;28;20515;-57
2021/08/10 11:57:41;;;;;;;6.20;3.43;;;;;;;;;;5113844;28;20572;-54
2021/08/10 12:00:17;;;;;;;6.27;3.03;;;;;;;;;;5114860;28;20450;-58
2021/08/10 12:02:45;;;;;;;9.50;4.00;;;;;;;;;;5113960;28;20451;-57
2021/08/10 12:05:13;;;;;;;6.53;3.67;;;;;;;;;;5113896;28;20570;-56
2021/08/10 12:07:51;;;;;;;4.33;3.07;;;;;;;;;;5112954;28;20665;-55
2021/08/10 12:10:52;;;;;;;5.13;3.27;;;;;;;;;;5113248;28;20473;-59
2021/08/10 12:13:26;;;;;;;6.10;3.50;;;;;;;;;;5114338;28;20465;-55
2021/08/10 12:15:55;;;;;;;5.40;3.50;;;;;;;;;;5114177;28;20467;-55
2021/08/10 12:18:23;;;;;;;5.17;3.43;;;;;;;;;;5113271;28;20451;-53
2021/08/10 12:23:57;;;;;;;6.30;3.33;;;;;;;;;;5111748;28;20431;-53
2021/08/10 12:26:33;;;;;;;6.10;3.20;;;;;;;;;;5092991;28;20502;-53
2021/08/10 12:29:06;;;;;;;5.33;3.17;;;;;;;;;;5093362;28;20440;-56
2021/08/10 12:31:37;;;;;;;10.60;3.87;;;;;;;;;;5093000;28;20436;-57
2021/08/10 12:34:07;;;;;;;7.00;4.23;;;;;;;;;;5093004;28;20480;-58
2021/08/10 12:37:04;;;;;;;8.03;3.80;;;;;;;;;;5098016;28;20616;-57
2021/08/10 12:42:58;;;;;;;7.53;3.17;;;;;;;;;;5093840;28;20515;-55
2021/08/10 12:45:34;;;;;;;6.80;3.20;;;;;;;;;;5095651;28;20552;-58
2021/08/10 12:48:01;;;;;;;9.23;3.20;;;;;;;;;;5094272;28;20491;-56
2021/08/10 12:50:37;;;;;;;5.13;3.80;;;;;;;;;;5097390;28;20456;-56
2021/08/10 12:53:43;;;;;;;6.47;3.40;;;;;;;;;;5096496;28;20491;-57
2021/08/10 12:56:11;;;;;;;5.07;2.70;;;;;;;;;;5111465;28;20498;-58
2021/08/10 12:58:53;;;;;;;5.83;4.33;;;;;;;;;;5115197;28;20483;-59
2021/08/10 13:01:22;;;;;;;5.63;3.33;;;;;;;;;;5113375;28;20477;-59
2021/08/10 13:03:50;;;;;;;5.60;3.63;;;;;;;;;;5115160;28;20475;-56
2021/08/10 13:06:29;;;;;;;8.03;3.63;;;;;;;;;;5113512;28;20475;-54
2021/08/10 13:09:07;;;;;;;5.97;4.03;;;;;;;;;;5105448;28;20448;-56
2021/08/10 13:11:36;;;;;;;5.87;3.13;;;;;;;;;;5098300;28;20523;-53
2021/08/10 13:14:11;;;;;;;7.00;4.00;;;;;;;;;;5094140;28;20515;-54
2021/08/10 13:16:43;;;;;;;7.37;4.50;;;;;;;;;;5105609;28;20444;-61
2021/08/10 13:19:12;;;;;;;6.40;3.33;;;;;;;;;;5094353;28;20450;-56
2021/08/10 13:21:47;;;;;;;8.67;4.33;;;;;;;;;;5110251;28;20459;-59
2021/08/10 13:24:15;;;;;;;4.87;3.40;;;;;;;;;;5116301;28;20454;-55
2021/08/10 13:26:47;;;;;;;9.80;4.60;;;;;;;;;;5111768;28;20835;-56
2021/08/10 13:29:16;;;;;;;8.53;3.27;;;;;;;;;;5095267;28;20478;-54
2021/08/10 13:31:48;;;;;;;6.73;3.57;;;;;;;;;;5115417;28;20415;-54
2021/08/10 13:34:54;;;;;;;6.80;3.27;;;;;;;;;;5115424;28;20754;-55
2021/08/10 13:37:22;;;;;;;5.10;3.93;;;;;;;;;;5113815;28;20455;-55
2021/08/10 13:39:52;;;;;;;6.67;3.93;;;;;;;;;;5096566;28;20577;-57
2021/08/10 13:42:19;;;;;;;5.40;3.60;;;;;;;;;;5110512;28;20466;-56
2021/08/10 13:44:48;;;;;;;5.53;3.50;;;;;;;;;;5118279;28;20455;-58
2021/08/10 13:47:24;;;;;;;8.70;6.27;;;;;;;;;;5118752;28;20488;-56
2021/08/10 13:50:16;;;;;;;8.70;4.47;;;;;;;;;;5112592;28;20437;-57
2021/08/10 13:52:49;;;;;;;6.10;3.87;;;;;;;;;;5116059;28;20447;-59
2021/08/10 13:55:17;;;;;;;7.77;4.57;;;;;;;;;;5115200;28;20448;-57
2021/08/10 13:57:57;;;;;;;10.70;4.30;;;;;;;;;;5108485;28;20490;-53
2021/08/10 14:00:25;;;;;;;6.43;3.70;;;;;;;;;;5096490;28;20485;-56
2021/08/10 14:02:54;;;;;;;4.83;3.17;;;;;;;;;;5108629;28;20466;-50
2021/08/10 14:05:23;;;;;;;5.73;3.30;;;;;;;;;;5106139;28;20499;-54
2021/08/10 14:08:00;;;;;;;9.73;4.60;;;;;;;;;;5107496;28;20467;-55
2021/08/10 14:10:36;;;;;;;6.20;4.50;;;;;;;;;;5115857;28;20459;-60
2021/08/10 14:13:15;;;;;;;7.30;4.40;;;;;;;;;;5117622;28;20446;-58
2021/08/10 14:15:45;;;;;;;5.80;3.97;;;;;;;;;;5116493;28;20447;-57
2021/08/10 14:18:19;;;;;;;4.90;3.73;;;;;;;;;;5114318;28;20871;-53
2021/08/10 14:21:03;;;;;;;4.97;3.47;;;;;;;;;;5100145;28;20452;-56
2021/08/10 14:23:48;;;;;;;8.10;3.63;;;;;;;;;;5112970;28;20526;-57
2021/08/10 14:26:17;;;;;;;5.27;3.40;;;;;;;;;;5104390;28;20480;-57
2021/08/10 14:28:46;;;;;;;6.40;3.53;;;;;;;;;;5101274;28;20473;-59
2021/08/10 14:31:35;;;;;;;5.80;3.40;;;;;;;;;;5113631;28;20479;-55
2021/08/10 14:34:05;;;;;;;8.77;4.40;;;;;;;;;;5113710;28;20578;-50
2021/08/10 14:36:32;;;;;;;8.50;3.70;;;;;;;;;;5111495;28;20610;-58
2021/08/10 14:39:09;;;;;;;7.83;4.80;;;;;;;;;;5113991;27;20447;-60
2021/08/10 14:41:39;;;;;;;10.00;4.00;;;;;;;;;;5111591;28;20497;-55
2021/08/10 14:44:07;;;;;;;7.10;4.03;;;;;;;;;;5107342;28;20501;-57
2021/08/10 14:46:34;;;;;;;8.40;4.03;;;;;;;;;;5110322;28;20685;-53
2021/08/10 14:49:01;;;;;;;7.30;4.00;;;;;;;;;;5092896;28;20456;-54
2021/08/10 14:51:49;;;;;;;7.90;4.50;;;;;;;;;;5094726;28;20476;-57
2021/08/10 14:54:16;;;;;;;8.23;4.03;;;;;;;;;;5092485;28;20448;-57
2021/08/10 14:56:45;;;;;;;9.37;4.57;;;;;;;;;;5093545;28;20495;-59
2021/08/10 14:59:20;;;;;;;5.07;3.67;;;;;;;;;;5093800;28;20471;-54
2021/08/10 15:01:48;;;;;;;6.50;3.80;;;;;;;;;;5105611;28;20496;-55
2021/08/10 15:04:15;;;;;;;4.83;3.40;;;;;;;;;;5114219;28;20504;-58
2021/08/10 15:06:44;;;;;;;6.40;4.70;;;;;;;;;;5113255;28;20478;-59
2021/08/10 15:09:14;;;;;;;8.17;4.30;;;;;;;;;;5114320;28;20491;-56
2021/08/10 15:12:00;;;;;;;10.00;4.80;;;;;;;;;;5110890;28;20443;-54
2021/08/10 15:14:28;;;;;;;5.53;3.20;;;;;;;;;;5101383;28;20467;-56
2021/08/10 15:16:57;;;;;;;7.03;3.90;;;;;;;;;;5099820;28;20559;-55
2021/08/10 15:22:28;;;;;;;5.30;3.40;;;;;;;;;;5110020;28;20520;-57
2021/08/10 15:24:57;;;;;;;7.43;4.70;;;;;;;;;;5113803;28;20472;-54
2021/08/10 15:27:36;;;;;;;5.90;3.20;;;;;;;;;;5112587;28;20540;-58
2021/08/10 15:30:04;;;;;;;6.13;3.50;;;;;;;;;;5112124;28;20447;-56
2021/08/10 15:32:32;;;;;;;6.43;5.07;;;;;;;;;;5111675;28;20473;-55
2021/08/10 15:35:10;;;;;;;5.87;3.53;;;;;;;;;;5111598;28;20462;-56
2021/08/10 15:37:38;;;;;;;4.70;3.50;;;;;;;;;;5110980;28;20448;-57
2021/08/10 15:40:24;;;;;;;5.10;3.50;;;;;;;;;;5109623;28;20463;-55
2021/08/10 15:42:55;;;;;;;5.03;3.80;;;;;;;;;;5093319;28;20467;-58
2021/08/10 15:45:44;;;;;;;5.30;3.60;;;;;;;;;;5097477;28;20451;-55
2021/08/10 15:48:11;;;;;;;4.43;3.20;;;;;;;;;;5114735;28;20534;-56
2021/08/10 15:53:46;;;;;;;7.80;3.73;;;;;;;;;;5103617;28;20465;-56